Time;durP1;ratioP1;P1;durP2;ratioP2;P2;SDS_P1;SDS_P2;PMS_P1;PMS_P2;Temp;Humidity;BMP_temperature;BMP_pressure;BME280_temperature;BME280_humidity;BME280_pressure;Samples;Min_cycle;Max_cycle;Signal;HPM_P1;HPM_P2
2022/07/21 00:03:45;;;;;;;6.18;4.35;;;23.30;99.90;;;;;;10176109;28;20149;-60
2022/07/21 00:08:35;;;;;;;7.30;4.70;;;23.40;99.90;;;;;;10174567;28;20174;-59
2022/07/21 00:13:26;;;;;;;6.28;5.05;;;23.40;99.90;;;;;;10175530;28;20024;-61
2022/07/21 00:18:18;;;;;;;7.85;5.05;;;23.50;99.90;;;;;;10175528;28;20028;-59
2022/07/21 00:23:09;;;;;;;7.72;5.07;;;23.40;99.90;;;;;;10173522;28;20048;-60
2022/07/21 00:28:01;;;;;;;8.73;5.43;;;23.30;99.90;;;;;;10175850;28;20358;-60
2022/07/21 00:32:51;;;;;;;8.30;5.13;;;23.20;99.90;;;;;;10169574;28;20471;-60
2022/07/21 00:37:42;;;;;;;8.27;6.32;;;23.40;99.90;;;;;;10170632;28;20036;-60
2022/07/21 00:42:34;;;;;;;8.57;6.10;;;23.30;99.90;;;;;;10173481;28;20030;-59
2022/07/21 00:47:28;;;;;;;11.50;7.15;;;23.30;99.90;;;;;;10174937;28;20394;-60
2022/07/21 00:52:19;;;;;;;9.17;6.43;;;23.20;99.90;;;;;;10172875;28;20396;-59
2022/07/21 00:57:10;;;;;;;8.02;5.60;;;23.30;99.90;;;;;;10173892;28;20160;-59
2022/07/21 01:02:01;;;;;;;12.30;6.15;;;23.20;99.90;;;;;;10173663;28;20379;-59
2022/07/21 01:06:53;;;;;;;11.73;6.00;;;23.20;99.90;;;;;;10171343;28;20024;-59
2022/07/21 01:11:44;;;;;;;9.27;6.75;;;23.20;99.90;;;;;;10172879;28;20435;-59
2022/07/21 01:16:34;;;;;;;9.02;5.95;;;23.10;99.90;;;;;;10173410;28;20028;-60
2022/07/21 01:21:31;;;;;;;9.15;6.05;;;23.20;99.90;;;;;;10165431;28;20055;-59
2022/07/21 01:26:22;;;;;;;10.13;5.97;;;23.10;99.90;;;;;;10169306;28;20100;-59
2022/07/21 01:31:12;;;;;;;11.60;6.20;;;23.00;99.90;;;;;;10172515;28;20199;-59
2022/07/21 01:36:03;;;;;;;7.90;5.68;;;22.90;99.90;;;;;;10166827;28;20114;-60
2022/07/21 01:46:11;;;;;;;8.70;6.68;;;22.90;99.90;;;;;;10171587;28;20051;-59
2022/07/21 01:51:01;;;;;;;10.75;6.30;;;22.70;99.90;;;;;;10184670;28;20113;-60
2022/07/21 01:55:52;;;;;;;10.15;7.07;;;22.90;99.90;;;;;;10172340;28;20064;-59
2022/07/21 02:00:43;;;;;;;9.60;6.57;;;22.80;99.90;;;;;;10171024;28;20035;-59
2022/07/21 02:05:33;;;;;;;9.15;6.63;;;22.90;99.90;;;;;;10167950;28;20051;-60
2022/07/21 02:10:24;;;;;;;9.75;6.97;;;23.10;99.90;;;;;;10170670;28;20102;-59
2022/07/21 02:15:15;;;;;;;9.57;5.50;;;23.00;99.90;;;;;;10166731;28;20533;-59
2022/07/21 02:20:06;;;;;;;8.55;6.22;;;22.80;99.90;;;;;;10166773;28;20032;-59
2022/07/21 02:24:57;;;;;;;8.48;5.82;;;22.80;99.90;;;;;;10170766;28;20012;-59
2022/07/21 02:29:47;;;;;;;9.82;5.43;;;22.70;99.90;;;;;;10162915;28;20502;-58
2022/07/21 02:34:38;;;;;;;9.52;5.97;;;22.70;99.90;;;;;;10164802;28;20044;-59
2022/07/21 02:39:28;;;;;;;8.93;6.63;;;22.70;99.90;;;;;;10170578;28;20048;-59
2022/07/21 02:44:19;;;;;;;10.68;7.25;;;22.60;99.90;;;;;;10171461;28;20167;-59
2022/07/21 02:49:10;;;;;;;10.52;6.65;;;22.40;99.90;;;;;;10172091;28;20077;-58
2022/07/21 02:54:01;;;;;;;10.40;6.72;;;22.40;99.90;;;;;;10172165;28;20024;-59
2022/07/21 02:58:51;;;;;;;8.30;6.32;;;22.50;99.90;;;;;;10168013;28;20396;-59
2022/07/21 03:03:42;;;;;;;9.75;5.90;;;22.60;99.90;;;;;;10171469;28;20028;-58
2022/07/21 03:08:33;;;;;;;9.13;5.45;;;22.50;99.90;;;;;;10172632;28;20474;-59
2022/07/21 03:13:24;;;;;;;10.90;6.95;;;22.40;99.90;;;;;;10175360;28;20016;-60
2022/07/21 03:18:15;;;;;;;8.38;6.20;;;22.30;99.90;;;;;;10176303;28;20032;-59
2022/07/21 03:23:06;;;;;;;9.35;6.88;;;22.30;99.90;;;;;;10177666;28;20034;-60
2022/07/21 03:27:57;;;;;;;9.48;6.68;;;22.40;99.90;;;;;;10164456;28;20046;-60
2022/07/21 03:32:48;;;;;;;10.95;6.72;;;22.30;99.90;;;;;;10170947;28;20090;-60
2022/07/21 03:37:43;;;;;;;9.30;5.88;;;22.20;99.90;;;;;;10177397;28;20108;-60
2022/07/21 03:42:33;;;;;;;11.80;6.65;;;22.30;99.90;;;;;;10166900;28;20067;-59
2022/07/21 03:47:24;;;;;;;8.95;6.20;;;22.10;99.90;;;;;;10176821;28;20060;-59
2022/07/21 03:52:15;;;;;;;10.15;6.10;;;22.20;99.90;;;;;;10177263;28;20047;-60
2022/07/21 03:57:05;;;;;;;10.90;7.85;;;22.40;99.90;;;;;;10175362;28;20027;-59
2022/07/21 04:01:56;;;;;;;10.13;6.22;;;22.40;99.90;;;;;;10176050;28;20032;-59
2022/07/21 04:06:46;;;;;;;10.95;6.45;;;22.30;99.90;;;;;;10176464;28;20501;-59
2022/07/21 04:11:37;;;;;;;9.98;6.63;;;22.50;99.90;;;;;;10173673;28;20419;-58
2022/07/21 04:16:28;;;;;;;11.45;6.72;;;22.50;99.90;;;;;;10175150;28;20494;-60
2022/07/21 04:21:19;;;;;;;10.82;6.53;;;22.40;99.90;;;;;;10173686;28;20036;-59
2022/07/21 04:26:10;;;;;;;11.60;7.10;;;22.40;99.90;;;;;;10174447;28;20062;-59
2022/07/21 04:31:01;;;;;;;9.93;6.72;;;22.50;99.90;;;;;;10174333;28;20016;-59
2022/07/21 04:35:51;;;;;;;10.05;7.07;;;22.50;99.90;;;;;;10169217;28;20044;-59
2022/07/21 04:40:42;;;;;;;11.77;7.13;;;22.50;99.90;;;;;;10174862;28;20032;-60
2022/07/21 04:45:32;;;;;;;12.10;7.47;;;22.50;99.90;;;;;;10174886;28;20097;-60
2022/07/21 04:50:25;;;;;;;12.88;8.25;;;22.50;99.90;;;;;;10174565;28;20114;-60
2022/07/21 04:55:16;;;;;;;13.07;7.80;;;22.50;99.90;;;;;;10174517;28;20024;-59
2022/07/21 05:00:11;;;;;;;14.30;8.32;;;22.40;99.90;;;;;;10173372;28;20040;-60
2022/07/21 05:05:02;;;;;;;13.27;8.18;;;22.50;99.90;;;;;;10167834;28;20025;-59
2022/07/21 05:09:53;;;;;;;13.93;8.60;;;22.50;99.90;;;;;;10171512;28;20438;-60
2022/07/21 05:14:43;;;;;;;15.73;8.43;;;22.70;99.90;;;;;;10172886;28;20095;-59
2022/07/21 05:19:34;;;;;;;12.18;8.00;;;22.70;99.90;;;;;;10171364;28;20051;-59
2022/07/21 05:24:25;;;;;;;13.43;8.95;;;22.90;99.90;;;;;;10174281;28;20027;-61
2022/07/21 05:29:15;;;;;;;14.45;8.50;;;23.10;99.90;;;;;;10172840;28;20035;-59
2022/07/21 05:34:06;;;;;;;14.80;8.80;;;23.10;99.90;;;;;;10166563;28;20585;-59
2022/07/21 05:38:57;;;;;;;12.40;8.40;;;23.00;99.90;;;;;;10171274;28;20387;-60
2022/07/21 05:43:48;;;;;;;14.25;9.45;;;23.20;99.90;;;;;;10173371;28;20578;-59
2022/07/21 05:48:39;;;;;;;17.98;9.45;;;23.00;99.90;;;;;;10163868;28;20088;-59
2022/07/21 05:53:30;;;;;;;13.75;9.60;;;23.00;99.90;;;;;;10173719;28;20028;-60
2022/07/21 05:58:23;;;;;;;13.85;10.00;;;22.80;99.90;;;;;;10173178;28;20084;-59
2022/07/21 06:03:14;;;;;;;13.93;9.07;;;22.70;99.90;;;;;;10165018;28;20081;-61
2022/07/21 06:08:05;;;;;;;12.45;9.25;;;22.50;99.90;;;;;;10172587;28;20093;-60
2022/07/21 06:12:55;;;;;;;16.83;9.55;;;22.90;99.90;;;;;;10164730;28;20115;-60
2022/07/21 06:17:46;;;;;;;13.30;8.25;;;23.00;99.90;;;;;;10167751;28;20559;-60
2022/07/21 06:22:37;;;;;;;12.52;8.00;;;23.10;99.90;;;;;;10166224;28;20508;-59
2022/07/21 06:27:28;;;;;;;14.77;9.90;;;23.20;99.90;;;;;;10171863;28;20020;-59
2022/07/21 06:32:19;;;;;;;13.15;8.73;;;23.30;99.90;;;;;;10160166;28;20128;-63
2022/07/21 06:37:09;;;;;;;17.00;9.13;;;23.30;99.90;;;;;;10169908;28;20123;-60
2022/07/21 06:42:00;;;;;;;11.05;8.05;;;23.30;99.90;;;;;;10177126;28;20079;-59
2022/07/21 06:46:51;;;;;;;12.82;8.35;;;23.50;99.90;;;;;;10178612;28;20494;-60
2022/07/21 06:51:41;;;;;;;11.88;7.97;;;23.50;99.90;;;;;;10178590;28;20421;-59
2022/07/21 06:56:32;;;;;;;13.57;8.80;;;23.50;99.90;;;;;;10180133;28;20059;-60
2022/07/21 07:01:23;;;;;;;13.23;8.75;;;23.40;99.90;;;;;;10179345;28;20025;-62
2022/07/21 07:06:13;;;;;;;13.43;8.75;;;23.40;99.90;;;;;;10190864;28;20031;-62
2022/07/21 07:11:05;;;;;;;10.05;8.20;;;23.50;99.90;;;;;;10173342;28;20107;-63
2022/07/21 07:15:55;;;;;;;11.23;7.20;;;23.50;99.90;;;;;;10178233;28;20024;-63
2022/07/21 07:20:46;;;;;;;10.48;7.85;;;23.70;99.90;;;;;;10177964;28;20036;-62
2022/07/21 07:25:38;;;;;;;12.88;8.60;;;23.80;99.90;;;;;;10166540;28;20104;-64
2022/07/21 07:30:28;;;;;;;12.43;8.43;;;24.00;99.90;;;;;;10178269;28;20522;-61
2022/07/21 07:35:19;;;;;;;12.23;8.18;;;24.00;99.90;;;;;;10177979;28;20044;-61
2022/07/21 07:40:13;;;;;;;11.23;8.00;;;24.10;99.90;;;;;;10174843;28;20042;-61
2022/07/21 07:45:06;;;;;;;11.38;7.80;;;24.10;99.90;;;;;;10177605;28;20032;-60
2022/07/21 07:49:57;;;;;;;11.68;7.13;;;24.20;99.90;;;;;;10174225;28;20416;-64
2022/07/21 07:54:48;;;;;;;9.57;7.03;;;24.20;99.90;;;;;;10169076;28;20024;-61
2022/07/21 07:59:38;;;;;;;10.27;6.50;;;24.30;99.90;;;;;;10176354;28;20269;-61
2022/07/21 08:04:29;;;;;;;8.38;7.10;;;24.50;99.90;;;;;;10176120;28;20293;-59
2022/07/21 08:09:20;;;;;;;9.25;6.53;;;24.60;99.90;;;;;;10173322;28;20024;-59
2022/07/21 08:14:10;;;;;;;9.55;7.22;;;24.90;99.90;;;;;;10173788;28;20166;-62
2022/07/21 08:19:01;;;;;;;8.65;6.60;;;25.20;99.90;;;;;;10176467;28;20434;-60
2022/07/21 08:23:52;;;;;;;7.47;5.63;;;25.30;99.90;;;;;;10171908;28;20027;-60
2022/07/21 08:28:42;;;;;;;5.03;4.22;;;25.50;99.90;;;;;;10174180;28;20594;-63
2022/07/21 08:33:33;;;;;;;7.45;5.43;;;25.60;99.30;;;;;;10169088;28;20348;-62
2022/07/21 08:38:24;;;;;;;9.10;4.85;;;25.80;98.90;;;;;;10168036;28;20050;-61
2022/07/21 08:43:14;;;;;;;5.97;4.43;;;25.80;98.40;;;;;;10174999;28;20450;-60
2022/07/21 08:48:06;;;;;;;6.45;4.82;;;26.00;98.20;;;;;;10174081;28;20031;-60
2022/07/21 08:52:56;;;;;;;8.50;5.45;;;25.70;98.00;;;;;;10171377;28;20062;-60
2022/07/21 08:57:47;;;;;;;5.45;4.85;;;25.60;97.80;;;;;;10170483;28;20054;-59
2022/07/21 09:02:38;;;;;;;5.63;4.20;;;25.70;97.50;;;;;;10173164;28;20113;-60
2022/07/21 09:07:28;;;;;;;4.28;3.88;;;25.80;97.30;;;;;;10171126;28;20020;-62
2022/07/21 09:12:19;;;;;;;5.85;3.78;;;26.00;97.00;;;;;;10171600;28;20269;-61
2022/07/21 09:17:10;;;;;;;5.40;3.03;;;26.30;96.50;;;;;;10187790;28;20020;-62
2022/07/21 09:22:05;;;;;;;4.88;3.67;;;26.10;96.40;;;;;;10171144;28;20039;-62
2022/07/21 09:27:00;;;;;;;4.70;3.28;;;26.20;96.10;;;;;;10173134;28;20553;-60
2022/07/21 09:31:51;;;;;;;3.15;2.42;;;26.30;95.80;;;;;;10170542;28;20051;-61
2022/07/21 09:36:56;;;;;;;5.32;3.08;;;26.40;95.40;;;;;;10174626;28;20513;-63
2022/07/21 09:41:47;;;;;;;5.43;3.00;;;26.60;94.80;;;;;;10172095;28;20035;-61
2022/07/21 09:46:37;;;;;;;3.20;2.60;;;26.80;94.80;;;;;;10167172;28;20107;-61
2022/07/21 09:51:32;;;;;;;3.38;2.50;;;26.70;94.50;;;;;;10171994;28;20105;-60
2022/07/21 09:56:24;;;;;;;3.10;2.47;;;26.70;94.10;;;;;;10167069;28;20039;-60
2022/07/21 10:01:15;;;;;;;3.13;2.45;;;26.80;93.80;;;;;;10165962;28;20039;-60
2022/07/21 10:06:07;;;;;;;5.82;1.95;;;26.70;93.60;;;;;;10171330;28;20016;-61
2022/07/21 10:10:58;;;;;;;2.63;2.05;;;26.50;93.40;;;;;;10172346;28;20028;-62
2022/07/21 10:15:50;;;;;;;1.90;1.70;;;26.60;92.70;;;;;;10168065;28;20303;-62
2022/07/21 10:20:46;;;;;;;4.13;2.30;;;26.80;92.10;;;;;;10187528;28;20043;-62
2022/07/21 10:25:37;;;;;;;3.53;1.95;;;26.80;91.80;;;;;;10174550;28;20008;-62
2022/07/21 10:30:38;;;;;;;2.45;2.25;;;27.30;91.60;;;;;;10168368;28;20028;-60
2022/07/21 10:35:30;;;;;;;2.13;1.88;;;27.40;90.90;;;;;;10165571;28;20154;-59
2022/07/21 10:40:21;;;;;;;3.30;2.25;;;27.80;90.70;;;;;;10179382;28;20127;-60
2022/07/21 10:45:31;;;;;;;3.03;1.98;;;28.00;90.30;;;;;;10172442;28;20091;-56
2022/07/21 10:50:41;;;;;;;3.78;1.98;;;28.40;89.70;;;;;;10169974;28;20577;-59
2022/07/21 10:55:36;;;;;;;5.10;2.70;;;28.70;89.00;;;;;;10176964;28;20024;-60
2022/07/21 11:00:33;;;;;;;2.80;1.80;;;28.70;88.80;;;;;;10172548;28;20094;-60
2022/07/21 11:05:26;;;;;;;5.88;2.17;;;28.80;88.10;;;;;;10176613;28;20110;-59
2022/07/21 11:10:18;;;;;;;2.07;1.70;;;28.70;88.00;;;;;;10179895;28;20028;-58
2022/07/21 11:15:47;;;;;;;3.67;2.17;;;29.00;87.00;;;;;;10180045;28;20012;-59
2022/07/21 11:20:38;;;;;;;2.53;1.83;;;29.10;85.70;;;;;;10179174;28;20035;-59
2022/07/21 11:25:34;;;;;;;3.40;2.00;;;28.80;86.60;;;;;;10172558;28;20016;-59
2022/07/21 11:30:25;;;;;;;3.05;2.35;;;28.90;85.60;;;;;;10179363;28;20246;-59
2022/07/21 11:35:15;;;;;;;2.55;2.35;;;29.10;85.20;;;;;;10177953;28;20506;-59
2022/07/21 11:40:08;;;;;;;5.13;2.53;;;28.80;85.30;;;;;;10172541;28;20040;-59
2022/07/21 11:44:59;;;;;;;3.87;2.33;;;28.60;85.00;;;;;;10154107;28;20013;-58
2022/07/21 11:49:53;;;;;;;5.38;2.83;;;28.60;84.70;;;;;;10169599;28;20032;-60
2022/07/21 11:54:49;;;;;;;2.47;1.90;;;28.70;84.70;;;;;;10173562;28;20114;-60
2022/07/21 11:59:41;;;;;;;2.72;2.38;;;28.60;84.50;;;;;;10174152;28;20040;-59
2022/07/21 12:04:33;;;;;;;4.32;2.60;;;28.30;84.30;;;;;;10173599;28;20073;-58
2022/07/21 12:09:25;;;;;;;3.13;2.30;;;28.20;83.90;;;;;;10174173;28;20073;-63
2022/07/21 12:14:16;;;;;;;3.40;2.50;;;28.50;83.60;;;;;;10177090;28;20024;-61
2022/07/21 12:19:11;;;;;;;3.60;2.33;;;28.80;83.00;;;;;;10176471;28;20473;-61
2022/07/21 12:24:02;;;;;;;3.50;1.83;;;28.80;82.30;;;;;;10173049;28;20032;-61
2022/07/21 12:28:54;;;;;;;6.25;3.80;;;29.00;82.30;;;;;;10174083;28;20024;-61
2022/07/21 12:33:44;;;;;;;3.53;2.00;;;29.70;82.30;;;;;;10173874;28;20059;-60
2022/07/21 12:38:39;;;;;;;3.63;2.55;;;30.50;81.60;;;;;;10173217;28;20410;-59
2022/07/21 12:43:30;;;;;;;3.03;2.65;;;30.30;80.40;;;;;;10173544;28;20046;-61
2022/07/21 12:48:24;;;;;;;3.65;2.33;;;30.40;79.70;;;;;;10166355;28;20028;-62
2022/07/21 12:53:14;;;;;;;3.55;2.50;;;31.00;79.50;;;;;;10174893;28;20032;-60
2022/07/21 12:58:06;;;;;;;3.20;2.33;;;31.30;78.10;;;;;;10173755;28;20126;-60
2022/07/21 13:02:57;;;;;;;3.33;2.28;;;32.10;77.70;;;;;;10168494;28;20070;-60
2022/07/21 13:07:48;;;;;;;3.35;2.30;;;31.10;76.00;;;;;;10171917;28;20673;-62
2022/07/21 13:12:39;;;;;;;4.55;3.00;;;30.00;75.40;;;;;;10174581;28;20122;-63
2022/07/21 13:17:30;;;;;;;4.25;2.40;;;29.60;74.90;;;;;;10171985;28;20351;-61
2022/07/21 13:22:21;;;;;;;2.60;2.30;;;30.00;73.80;;;;;;10175929;28;20071;-59
2022/07/21 13:27:11;;;;;;;4.57;2.80;;;30.40;72.90;;;;;;10173341;28;20032;-62
2022/07/21 13:32:02;;;;;;;5.38;2.67;;;32.30;71.00;;;;;;10185869;28;20403;-61
2022/07/21 13:36:53;;;;;;;4.15;2.60;;;33.50;69.20;;;;;;10172939;28;20028;-62
2022/07/21 13:41:44;;;;;;;2.60;2.27;;;34.00;67.90;;;;;;10172309;28;20040;-63
2022/07/21 13:46:34;;;;;;;2.80;2.47;;;36.50;65.70;;;;;;10169790;28;20024;-63
2022/07/21 13:51:25;;;;;;;3.50;2.65;;;37.30;63.40;;;;;;10171779;28;20157;-60
2022/07/21 13:56:16;;;;;;;4.32;2.60;;;37.30;61.30;;;;;;10171749;28;20609;-62
2022/07/21 14:01:08;;;;;;;2.28;2.08;;;38.00;59.90;;;;;;10169559;28;20040;-61
2022/07/21 14:05:59;;;;;;;3.67;3.10;;;34.40;60.80;;;;;;10171579;28;20525;-60
2022/07/21 14:10:49;;;;;;;2.30;2.10;;;32.70;62.30;;;;;;10170248;28;20117;-64
2022/07/21 14:15:40;;;;;;;2.97;2.42;;;33.70;61.20;;;;;;10169242;28;20021;-60
2022/07/21 14:20:31;;;;;;;3.70;3.30;;;32.30;60.50;;;;;;10167889;28;20073;-61
2022/07/21 14:25:23;;;;;;;5.57;3.15;;;32.20;59.90;;;;;;10169828;28;20024;-60
2022/07/21 14:30:14;;;;;;;4.75;2.70;;;31.30;60.50;;;;;;10171836;28;20112;-62
2022/07/21 14:35:05;;;;;;;4.72;2.78;;;31.30;60.90;;;;;;10172404;28;20452;-61
2022/07/21 14:39:56;;;;;;;3.10;2.40;;;34.90;58.50;;;;;;10171253;28;20039;-60
2022/07/21 14:44:47;;;;;;;4.15;2.90;;;36.20;56.50;;;;;;10170591;28;20020;-60
2022/07/21 14:49:37;;;;;;;5.13;3.08;;;33.80;57.80;;;;;;10171124;28;20052;-60
2022/07/21 14:54:28;;;;;;;2.78;2.58;;;33.50;58.00;;;;;;10167039;28;20568;-62
2022/07/21 14:59:19;;;;;;;4.37;3.00;;;36.40;55.20;;;;;;10172618;28;20382;-59
2022/07/21 15:04:09;;;;;;;2.90;2.60;;;36.50;54.50;;;;;;10178855;28;20089;-60
2022/07/21 15:09:00;;;;;;;2.78;2.53;;;34.10;55.60;;;;;;10176350;28;20528;-60
2022/07/21 15:13:51;;;;;;;6.30;3.05;;;33.10;56.50;;;;;;10178337;28;20028;-62
2022/07/21 15:18:42;;;;;;;4.20;2.67;;;32.70;56.20;;;;;;10177747;28;20119;-63
2022/07/21 15:23:33;;;;;;;3.97;2.65;;;32.20;56.50;;;;;;10176632;28;20046;-60
2022/07/21 15:28:23;;;;;;;2.67;2.47;;;31.80;56.80;;;;;;10187123;28;20031;-62
2022/07/21 15:33:14;;;;;;;4.32;2.75;;;32.30;56.70;;;;;;10177274;28;20096;-62
2022/07/21 15:38:05;;;;;;;2.77;2.53;;;35.00;54.80;;;;;;10175530;28;20016;-61
2022/07/21 15:42:55;;;;;;;3.88;3.28;;;37.10;53.30;;;;;;10185875;28;20497;-60
2022/07/21 15:47:46;;;;;;;;;;;37.60;52.40;;;;;;10177311;28;20032;-60
2022/07/21 15:52:37;;;;;;;3.83;2.77;;;38.10;51.30;;;;;;10176790;28;19908;-60
2022/07/21 15:57:28;;;;;;;4.78;2.55;;;37.40;52.20;;;;;;10177086;28;20024;-60
2022/07/21 16:02:19;;;;;;;3.23;2.93;;;37.00;52.20;;;;;;10177113;28;20036;-63
2022/07/21 16:07:11;;;;;;;5.60;3.22;;;35.60;52.70;;;;;;10174951;28;20024;-63
2022/07/21 16:12:03;;;;;;;;;;;34.50;53.00;;;;;;10175348;28;20402;-63
2022/07/21 16:16:54;;;;;;;3.53;2.88;;;35.60;51.50;;;;;;10175686;28;19911;-60
2022/07/21 16:21:45;;;;;;;3.22;2.92;;;36.80;50.50;;;;;;10168879;28;20115;-61
2022/07/21 16:26:36;;;;;;;5.10;2.85;;;38.90;48.70;;;;;;10174709;28;20032;-62
2022/07/21 16:31:27;;;;;;;3.53;3.22;;;40.50;47.40;;;;;;10175173;28;20521;-59
2022/07/21 16:36:18;;;;;;;3.08;2.83;;;41.80;46.10;;;;;;10173093;28;20300;-62
2022/07/21 16:41:09;;;;;;;3.08;2.78;;;42.20;45.10;;;;;;10174946;28;20047;-60
2022/07/21 16:45:59;;;;;;;7.00;3.58;;;41.80;44.50;;;;;;10174964;28;20176;-59
2022/07/21 16:50:50;;;;;;;5.32;4.25;;;42.10;44.30;;;;;;10174668;28;20134;-60
2022/07/21 16:55:41;;;;;;;3.40;3.08;;;41.70;44.30;;;;;;10175758;28;20024;-60
2022/07/21 17:00:32;;;;;;;3.45;3.13;;;42.00;43.70;;;;;;10174731;28;20036;-62
2022/07/21 17:05:22;;;;;;;;;;;41.90;43.20;;;;;;10185482;28;20119;-59
2022/07/21 17:10:13;;;;;;;3.97;3.53;;;37.30;46.00;;;;;;10169909;28;19908;-61
2022/07/21 17:15:05;;;;;;;5.13;3.35;;;35.30;47.90;;;;;;10168911;28;20029;-60
2022/07/21 17:19:56;;;;;;;4.03;3.40;;;35.30;48.00;;;;;;10167063;28;20123;-59
2022/07/21 17:24:46;;;;;;;4.20;2.80;;;35.80;46.60;;;;;;10172303;28;20160;-61
2022/07/21 17:29:37;;;;;;;5.47;3.00;;;34.40;47.90;;;;;;10176677;28;20109;-60
2022/07/21 17:34:28;;;;;;;3.75;2.97;;;33.60;48.50;;;;;;10172922;28;20040;-60
2022/07/21 17:39:18;;;;;;;6.80;3.35;;;33.20;48.50;;;;;;10172406;28;20132;-60
2022/07/21 17:44:09;;;;;;;6.30;3.75;;;32.40;49.40;;;;;;10167966;28;20028;-66
2022/07/21 17:48:59;;;;;;;8.30;6.13;;;32.70;49.20;;;;;;10169540;28;20394;-63
2022/07/21 17:53:50;;;;;;;4.35;3.25;;;31.90;50.10;;;;;;10171094;28;20539;-60
2022/07/21 17:58:44;;;;;;;7.00;3.13;;;31.50;50.70;;;;;;10167612;28;20080;-61
2022/07/21 18:03:34;;;;;;;4.05;3.42;;;31.00;51.20;;;;;;10171873;28;20046;-62
2022/07/21 18:08:25;;;;;;;8.32;4.15;;;30.90;51.50;;;;;;10168248;28;20032;-63
2022/07/21 18:13:16;;;;;;;3.75;3.17;;;31.00;51.70;;;;;;10166319;28;20022;-62
2022/07/21 18:18:06;;;;;;;5.10;3.53;;;30.90;51.90;;;;;;10174582;28;20039;-60
2022/07/21 18:22:57;;;;;;;5.28;3.75;;;31.00;52.10;;;;;;10170392;28;20632;-61
2022/07/21 18:27:48;;;;;;;5.95;3.53;;;30.80;52.50;;;;;;10170872;28;20062;-59
2022/07/21 18:32:38;;;;;;;7.93;3.70;;;30.70;52.80;;;;;;10170713;28;20395;-66
2022/07/21 18:37:29;;;;;;;3.75;3.28;;;30.60;53.10;;;;;;10178400;28;20489;-62
2022/07/21 18:42:20;;;;;;;5.13;2.92;;;30.50;54.10;;;;;;10184510;28;20103;-64
2022/07/21 18:47:10;;;;;;;7.07;4.18;;;30.50;53.60;;;;;;10196409;28;20035;-63
2022/07/21 18:52:01;;;;;;;7.22;3.88;;;30.40;53.90;;;;;;10178343;28;20032;-61
2022/07/21 18:56:52;;;;;;;7.07;5.05;;;30.30;54.20;;;;;;10179168;28;20031;-58
2022/07/21 19:01:43;;;;;;;7.70;3.95;;;30.30;54.60;;;;;;10179647;28;20119;-62
2022/07/21 19:06:34;;;;;;;7.40;5.35;;;30.10;54.80;;;;;;10168549;28;20448;-60
2022/07/21 19:11:25;;;;;;;5.53;3.90;;;30.00;55.20;;;;;;10179353;28;20101;-59
2022/07/21 19:16:15;;;;;;;9.18;4.93;;;29.90;55.50;;;;;;10174390;28;20020;-60
2022/07/21 19:21:06;;;;;;;6.30;4.13;;;29.80;56.60;;;;;;10169333;28;20183;-63
2022/07/21 19:25:57;;;;;;;5.65;3.97;;;29.70;56.20;;;;;;10178843;28;20019;-60
2022/07/21 19:30:48;;;;;;;7.43;4.28;;;29.60;56.40;;;;;;10177705;28;20422;-60
2022/07/21 19:35:39;;;;;;;7.40;3.45;;;29.60;57.00;;;;;;10174297;28;20078;-58
2022/07/21 19:40:30;;;;;;;5.70;3.85;;;29.60;57.20;;;;;;10177831;28;20122;-60
2022/07/21 19:45:21;;;;;;;8.07;4.35;;;29.50;57.40;;;;;;10177194;28;20028;-59
2022/07/21 19:50:11;;;;;;;6.10;4.32;;;29.40;57.80;;;;;;10168774;28;20569;-60
2022/07/21 19:55:04;;;;;;;11.85;4.22;;;29.20;58.00;;;;;;10176902;28;20012;-59
2022/07/21 19:59:56;;;;;;;5.72;4.82;;;29.00;58.20;;;;;;10176945;28;20453;-61
2022/07/21 20:04:47;;;;;;;4.75;4.22;;;28.90;58.30;;;;;;10172570;28;20074;-60
2022/07/21 20:09:37;;;;;;;9.23;4.93;;;28.70;58.40;;;;;;10175472;28;20597;-64
2022/07/21 20:14:28;;;;;;;7.45;5.10;;;28.80;58.60;;;;;;10174203;28;20111;-62
2022/07/21 20:19:19;;;;;;;7.57;5.10;;;28.90;58.60;;;;;;10171648;28;20036;-61
2022/07/21 20:24:09;;;;;;;8.13;5.03;;;29.00;58.70;;;;;;10173469;28;20036;-57
2022/07/21 20:29:00;;;;;;;8.25;5.60;;;29.00;58.90;;;;;;10174716;28;20020;-60
2022/07/21 20:33:51;;;;;;;6.80;4.88;;;28.90;59.10;;;;;;10162314;28;20619;-60
2022/07/21 20:38:41;;;;;;;6.47;4.55;;;28.90;59.40;;;;;;10167096;28;20024;-60
2022/07/21 20:43:32;;;;;;;8.38;4.85;;;28.80;59.70;;;;;;10170909;28;20115;-64
2022/07/21 20:48:23;;;;;;;6.55;4.68;;;28.70;59.80;;;;;;10173411;28;20024;-61
2022/07/21 20:53:15;;;;;;;5.28;4.65;;;28.70;60.00;;;;;;10174035;28;20024;-60
2022/07/21 20:58:06;;;;;;;5.72;4.47;;;28.50;60.40;;;;;;10168425;28;20024;-60
2022/07/21 21:02:56;;;;;;;6.78;4.78;;;28.50;60.50;;;;;;10173698;28;20573;-59
2022/07/21 21:07:47;;;;;;;5.57;4.32;;;28.50;60.80;;;;;;10174555;28;20032;-61
2022/07/21 21:12:38;;;;;;;6.78;4.72;;;28.40;60.90;;;;;;10170943;28;20038;-59
2022/07/21 21:17:29;;;;;;;7.28;4.70;;;28.30;61.20;;;;;;10171296;28;20020;-60
2022/07/21 21:22:19;;;;;;;8.55;6.45;;;28.30;61.50;;;;;;10171767;28;20044;-61
2022/07/21 21:27:10;;;;;;;6.82;5.22;;;28.30;61.70;;;;;;10165104;28;20020;-59
2022/07/21 21:32:00;;;;;;;6.95;4.72;;;28.20;61.90;;;;;;10171876;28;20044;-59
2022/07/21 21:36:51;;;;;;;6.38;5.10;;;28.20;62.00;;;;;;10171666;28;20024;-59
2022/07/21 21:41:42;;;;;;;7.22;5.75;;;28.20;62.30;;;;;;10169144;28;20032;-59
2022/07/21 21:46:32;;;;;;;6.45;5.15;;;28.20;62.70;;;;;;10172878;28;20051;-58
2022/07/21 21:51:23;;;;;;;8.25;4.78;;;28.10;62.90;;;;;;10172574;28;20074;-59
2022/07/21 21:56:14;;;;;;;6.10;5.18;;;28.10;63.20;;;;;;10170376;28;20047;-59
2022/07/21 22:01:05;;;;;;;8.45;5.72;;;27.90;63.60;;;;;;10172359;28;20067;-59
2022/07/21 22:05:55;;;;;;;9.57;5.03;;;27.90;64.10;;;;;;10167475;28;20028;-59
2022/07/21 22:10:46;;;;;;;6.93;5.10;;;27.80;64.20;;;;;;10168501;28;20020;-59
2022/07/21 22:15:37;;;;;;;6.30;4.82;;;27.70;64.60;;;;;;10171029;28;20020;-60
2022/07/21 22:20:27;;;;;;;6.93;5.20;;;27.50;64.90;;;;;;10179889;28;20457;-60
2022/07/21 22:25:18;;;;;;;5.63;4.85;;;27.60;65.10;;;;;;10168251;28;20012;-59
2022/07/21 22:30:10;;;;;;;6.07;4.43;;;27.60;65.10;;;;;;10180106;28;20020;-59
2022/07/21 22:35:01;;;;;;;7.00;4.97;;;27.60;65.20;;;;;;10179753;28;20048;-60
2022/07/21 22:39:52;;;;;;;6.03;4.60;;;27.50;65.40;;;;;;10170899;28;20036;-60
2022/07/21 22:44:42;;;;;;;8.75;5.30;;;27.50;65.60;;;;;;10178454;28;20442;-59
2022/07/21 22:49:33;;;;;;;9.90;5.25;;;27.40;65.90;;;;;;10178828;28;20017;-59
2022/07/21 22:54:24;;;;;;;6.65;5.55;;;27.30;66.40;;;;;;10175224;28;20103;-60
2022/07/21 22:59:14;;;;;;;7.32;5.03;;;27.30;66.60;;;;;;10178480;28;20031;-59
2022/07/21 23:04:05;;;;;;;7.18;6.00;;;27.20;66.90;;;;;;10176970;28;20074;-60
2022/07/21 23:08:56;;;;;;;9.45;5.47;;;27.20;67.10;;;;;;10178686;28;20016;-59
2022/07/21 23:13:47;;;;;;;8.23;5.03;;;27.10;67.70;;;;;;10170247;28;20027;-59
2022/07/21 23:18:37;;;;;;;7.38;5.03;;;27.10;67.90;;;;;;10173484;28;20040;-59
2022/07/21 23:23:28;;;;;;;6.03;5.20;;;27.00;68.30;;;;;;10177163;28;20020;-60
2022/07/21 23:28:19;;;;;;;6.00;5.07;;;26.80;68.80;;;;;;10177501;28;20020;-58
2022/07/21 23:33:09;;;;;;;5.53;4.47;;;26.80;69.20;;;;;;10171224;28;20040;-60
2022/07/21 23:38:00;;;;;;;6.43;5.20;;;26.50;69.80;;;;;;10177734;28;20042;-58
2022/07/21 23:42:50;;;;;;;6.50;4.70;;;26.40;70.20;;;;;;10176994;28;20285;-59
2022/07/21 23:47:41;;;;;;;8.20;4.72;;;26.40;70.40;;;;;;10168464;28;20031;-59
2022/07/21 23:52:32;;;;;;;8.18;4.68;;;26.40;70.60;;;;;;10176772;28;20590;-60
2022/07/21 23:57:23;;;;;;;5.25;4.70;;;26.40;70.80;;;;;;10171964;28;20035;-59
